Terminal Aerodrome Forecast
Issued by NWS

Home | Current Version | Previous Version | Text Only | Print | Product List | Glossary On
Versions: 1 2 3 4 5 6 7 8 9 10 11 12 13 14 15 16 17 18 19 20 21 22 23 24 25 26 27 28 29 30 31 32 33 34 35 36 37 38 39 40 41 42 43 44
244
FTUS43 KPAH 172232 AAB
TAFOWB
TAF AMD
KOWB 172232Z 1723/1818 24003KT 1 1/2SM -SN BR OVC006
     FM180200 24006KT P6SM OVC007
     FM180500 25004KT P6SM BKN015
     FM180800 11004KT P6SM SCT200=

USA.gov is the U.S. government's official web portal to all federal, state and local government web resources and services.